CA-0006 weather

CLOSED RCAF Station Carberry
Carberry, Manitoba, Canada

Public forecast

Using degrees Celsius for public forecast. Weather courtesy of forecast.io.

METAR (pilot weather report)

Closest report is Brandon Municipal Airport, 21.6 nm (40.0 km) W. Retrieved 2019/05/26 11:00 UTC (19 minutes ago):

CYBR 261100Z 08013G18KT 15SM SHRA OVC039 04/03 A3017 RMK SC8 CVCTV CLD EMBD SLP232

TAF (pilot weather forecast)

Closest forecast is Brandon Municipal Airport, 21.6 nm (40.0 km) W. Retrieved 2019/05/26 06:42 UTC (5 hours ago):

TAF TAF CYBR 260538Z 2606/2618 07012G22KT P6SM -SHRA FEW012 OVC030 TEMPO 2606/2614 5SM -SHRA BR OVC012 FM261400 08015KT P6SM SCT020 BKN100 TEMPO 2614/2617 5SM BR BKN010 OVC090 FM261700 09015KT P6SM BKN140 RMK NXT FCST BY 261200Z